createdAt,value
2022-12-06T00:00:09.019Z,4.64
2022-12-06T00:03:14.245Z,4.65
2022-12-06T00:06:17.795Z,4.66
2022-12-06T00:09:21.496Z,4.63
2022-12-06T00:12:23.156Z,4.66
2022-12-06T00:15:26.133Z,4.63
2022-12-06T00:18:27.743Z,4.59
2022-12-06T00:21:31.348Z,4.56
2022-12-06T00:24:34.581Z,4.51
2022-12-06T00:27:36.248Z,4.48
2022-12-06T00:30:39.249Z,4.49
2022-12-06T00:33:40.967Z,4.52
2022-12-06T00:36:43.315Z,4.55
2022-12-06T00:39:45.010Z,4.46
2022-12-06T00:42:46.719Z,4.37
2022-12-06T00:45:49.683Z,4.35
2022-12-06T00:48:52.267Z,4.29
2022-12-06T00:51:54.097Z,4.34
2022-12-06T00:54:55.732Z,4.33
2022-12-06T00:57:57.397Z,4.32
2022-12-06T01:01:09.333Z,4.29
2022-12-06T01:04:11.100Z,4.22
2022-12-06T01:07:12.711Z,4.29
2022-12-06T01:10:14.420Z,4.26
2022-12-06T01:13:16.057Z,4.29
2022-12-06T01:16:21.169Z,4.26
2022-12-06T01:19:22.710Z,4.27
2022-12-06T01:22:24.326Z,4.28
2022-12-06T01:25:26.608Z,4.23
2022-12-06T01:28:29.076Z,4.23
2022-12-06T01:31:38.218Z,4.25
2022-12-06T01:34:40.941Z,4.21
2022-12-06T01:37:42.567Z,4.26
2022-12-06T01:40:47.149Z,4.26
2022-12-06T01:43:49.796Z,4.30
2022-12-06T01:46:52.799Z,4.30
2022-12-06T01:50:01.121Z,4.30
2022-12-06T01:53:06.839Z,4.31
2022-12-06T01:56:09.139Z,4.29
2022-12-06T01:59:11.397Z,4.30
2022-12-06T02:02:14.670Z,4.23
2022-12-06T02:05:17.103Z,4.29
2022-12-06T02:08:20.312Z,4.27
2022-12-06T02:11:22.032Z,4.23
2022-12-06T02:14:28.274Z,4.28
2022-12-06T02:17:41.186Z,4.30
2022-12-06T02:20:46.919Z,4.24
2022-12-06T02:24:35.236Z,4.25
2022-12-06T02:27:55.038Z,4.30
2022-12-06T02:31:05.026Z,4.31
2022-12-06T02:34:13.920Z,4.30
2022-12-06T02:37:22.441Z,4.25
2022-12-06T02:40:32.884Z,4.27
2022-12-06T02:43:38.103Z,4.26
2022-12-06T02:46:43.629Z,4.28
2022-12-06T02:49:50.005Z,4.27
2022-12-06T02:52:53.717Z,4.21
2022-12-06T02:55:56.517Z,4.20
2022-12-06T02:58:58.228Z,4.25
2022-12-06T03:02:04.351Z,4.25
2022-12-06T03:05:16.653Z,4.21
2022-12-06T03:08:27.766Z,4.26
2022-12-06T03:11:37.379Z,4.23
2022-12-06T03:14:45.752Z,4.26
2022-12-06T03:17:52.612Z,4.24
2022-12-06T03:20:59.208Z,4.20
2022-12-06T03:24:01.689Z,4.21
2022-12-06T03:27:07.621Z,4.23
2022-12-06T03:30:12.638Z,4.26
2022-12-06T03:33:17.443Z,4.20
2022-12-06T03:36:19.977Z,4.29
2022-12-06T03:39:27.206Z,4.28
2022-12-06T03:42:29.316Z,4.24
2022-12-06T03:45:38.990Z,4.22
2022-12-06T03:48:45.428Z,4.26
2022-12-06T03:51:47.694Z,4.27
2022-12-06T03:54:49.350Z,4.25
2022-12-06T03:57:50.962Z,4.25
2022-12-06T04:00:52.664Z,4.24
2022-12-06T04:03:55.672Z,4.25
2022-12-06T04:06:57.382Z,4.20
2022-12-06T04:10:05.013Z,4.23
2022-12-06T04:13:09.433Z,4.23
2022-12-06T04:16:30.011Z,4.26
2022-12-06T04:19:33.241Z,4.25
2022-12-06T04:22:53.737Z,4.16
2022-12-06T04:25:55.492Z,4.18
2022-12-06T04:29:15.818Z,4.17
2022-12-06T04:32:36.095Z,4.19
2022-12-06T04:35:57.919Z,4.20
2022-12-06T04:38:59.923Z,4.18
2022-12-06T04:42:20.812Z,4.17
2022-12-06T04:45:22.472Z,4.16
2022-12-06T04:48:24.154Z,4.18
2022-12-06T04:51:27.357Z,4.17
2022-12-06T04:54:30.115Z,4.09
2022-12-06T04:57:31.786Z,4.10
2022-12-06T05:00:33.483Z,4.13
2022-12-06T05:03:38.426Z,4.15
2022-12-06T05:06:45.703Z,4.17
2022-12-06T05:09:47.408Z,4.09
2022-12-06T05:12:48.959Z,4.14
2022-12-06T05:15:51.748Z,4.13
2022-12-06T05:18:53.630Z,4.11
2022-12-06T05:21:56.620Z,4.12
2022-12-06T05:24:58.374Z,4.10
2022-12-06T05:28:00.028Z,4.16
2022-12-06T05:31:01.716Z,4.14
2022-12-06T05:34:03.491Z,4.13
2022-12-06T05:37:06.676Z,4.09
2022-12-06T05:40:09.392Z,4.03
2022-12-06T05:43:12.000Z,4.01
2022-12-06T05:46:14.063Z,4.10
2022-12-06T05:49:15.759Z,3.97
2022-12-06T05:52:18.757Z,4.06
2022-12-06T05:55:20.495Z,4.14
2022-12-06T05:58:22.360Z,4.06
2022-12-06T06:01:24.019Z,4.14
2022-12-06T06:04:25.664Z,4.05
2022-12-06T06:07:29.473Z,4.03
2022-12-06T06:10:31.141Z,4.04
2022-12-06T06:13:32.894Z,4.02
2022-12-06T06:16:34.786Z,4.02
2022-12-06T06:19:36.505Z,3.95
2022-12-06T06:22:41.747Z,3.93
2022-12-06T06:25:43.240Z,4.02
2022-12-06T06:28:44.989Z,4.07
2022-12-06T06:31:46.743Z,3.98
2022-12-06T06:34:48.611Z,4.02
2022-12-06T06:37:51.650Z,4.06
2022-12-06T06:40:53.343Z,3.93
2022-12-06T06:43:54.958Z,3.97
2022-12-06T06:46:56.658Z,3.91
2022-12-06T06:49:58.587Z,3.88
2022-12-06T06:53:02.643Z,3.95
2022-12-06T06:56:05.013Z,3.91
2022-12-06T06:59:06.646Z,3.82
2022-12-06T07:02:11.869Z,4.00
2022-12-06T07:05:13.355Z,3.94
2022-12-06T07:08:16.385Z,3.93
2022-12-06T07:11:18.118Z,4.02
2022-12-06T07:14:19.817Z,4.05
2022-12-06T07:17:21.652Z,3.89
2022-12-06T07:20:23.339Z,3.89
2022-12-06T07:23:26.518Z,3.82
2022-12-06T07:26:31.768Z,3.81
2022-12-06T07:29:33.379Z,3.89
2022-12-06T07:32:36.771Z,3.79
2022-12-06T07:36:10.389Z,3.78
2022-12-06T07:39:01.534Z,3.76
2022-12-06T07:42:21.878Z,3.76
2022-12-06T07:45:27.548Z,3.70
2022-12-06T07:48:29.240Z,3.75
2022-12-06T07:51:31.846Z,3.72
2022-12-06T07:54:34.973Z,3.67
2022-12-06T07:57:42.992Z,3.65
2022-12-06T08:00:45.193Z,3.71
2022-12-06T08:03:46.797Z,3.67
2022-12-06T08:06:50.200Z,3.60
2022-12-06T08:09:53.962Z,3.71
2022-12-06T08:12:55.625Z,3.66
2022-12-06T08:15:57.696Z,3.67
2022-12-06T08:18:59.514Z,3.61
2022-12-06T08:22:01.213Z,3.66
2022-12-06T08:25:04.655Z,3.66
2022-12-06T08:28:06.492Z,3.77
2022-12-06T08:31:10.399Z,3.83
2022-12-06T08:34:12.790Z,3.92
2022-12-06T08:37:14.428Z,3.89
2022-12-06T08:40:17.548Z,3.83
2022-12-06T08:43:19.195Z,3.89
2022-12-06T08:46:21.026Z,3.88
2022-12-06T08:49:24.448Z,3.96
2022-12-06T08:52:26.375Z,3.93
2022-12-06T08:55:29.372Z,3.97
2022-12-06T08:58:31.162Z,4.01
2022-12-06T09:01:37.708Z,3.88
2022-12-06T09:04:39.951Z,3.84
2022-12-06T09:07:41.681Z,3.89
2022-12-06T09:10:44.676Z,3.98
2022-12-06T09:13:46.836Z,4.01
2022-12-06T09:16:49.100Z,3.92
2022-12-06T09:19:50.847Z,3.92
2022-12-06T09:22:52.491Z,4.00
2022-12-06T09:25:55.500Z,4.00
2022-12-06T09:28:58.351Z,3.99
2022-12-06T09:32:00.855Z,3.83
2022-12-06T09:35:02.558Z,3.86
2022-12-06T09:38:05.104Z,3.82
2022-12-06T09:41:31.736Z,3.80
2022-12-06T09:44:58.019Z,3.80
2022-12-06T09:48:16.826Z,3.96
2022-12-06T09:51:30.127Z,3.91
2022-12-06T09:54:50.675Z,3.95
2022-12-06T09:58:01.998Z,4.11
2022-12-06T10:01:16.481Z,4.03
2022-12-06T10:04:41.618Z,4.06
2022-12-06T10:07:54.172Z,3.96
2022-12-06T10:11:02.708Z,3.93
2022-12-06T10:14:20.172Z,4.00
2022-12-06T10:17:30.120Z,4.04
2022-12-06T10:20:38.642Z,4.03
2022-12-06T10:24:01.674Z,4.12
2022-12-06T10:27:09.927Z,4.08
2022-12-06T10:30:15.302Z,4.10
2022-12-06T10:33:21.592Z,4.08
2022-12-06T10:36:42.455Z,4.16
2022-12-06T10:40:00.975Z,4.10
2022-12-06T10:43:09.200Z,4.23
2022-12-06T10:46:37.062Z,4.24
2022-12-06T10:49:53.973Z,4.17
2022-12-06T10:53:02.076Z,4.26
2022-12-06T10:56:11.915Z,4.34
2022-12-06T10:59:23.994Z,4.31
2022-12-06T11:02:34.839Z,4.43
2022-12-06T11:05:41.119Z,4.26
2022-12-06T11:08:46.887Z,4.14
2022-12-06T11:11:50.276Z,4.17
2022-12-06T11:14:55.680Z,4.48
2022-12-06T11:18:10.142Z,4.39
2022-12-06T11:21:21.692Z,4.59
2022-12-06T11:24:30.477Z,4.63
2022-12-06T11:27:37.951Z,4.63
2022-12-06T11:30:39.668Z,4.66
2022-12-06T11:33:42.974Z,4.57
2022-12-06T11:36:46.532Z,4.57
2022-12-06T11:39:51.222Z,4.66
2022-12-06T11:42:54.077Z,4.67
2022-12-06T11:45:56.804Z,4.71
2022-12-06T11:49:16.160Z,4.59
2022-12-06T11:52:22.067Z,4.58
2022-12-06T11:55:26.401Z,4.72
2022-12-06T11:58:33.283Z,4.61
2022-12-06T12:01:40.667Z,4.70
2022-12-06T12:04:44.880Z,4.68
2022-12-06T12:07:52.222Z,4.68
2022-12-06T12:10:59.751Z,4.72
2022-12-06T12:14:04.262Z,4.83
2022-12-06T12:17:17.291Z,4.86
2022-12-06T12:20:26.458Z,4.90
2022-12-06T12:23:32.387Z,4.79
2022-12-06T12:26:37.192Z,4.99
2022-12-06T12:29:38.902Z,4.97
2022-12-06T12:32:40.638Z,4.91
2022-12-06T12:35:46.028Z,4.78
2022-12-06T12:38:55.285Z,4.94
2022-12-06T12:41:57.291Z,4.99
2022-12-06T12:45:02.977Z,4.94
2022-12-06T12:48:21.704Z,4.85
2022-12-06T12:51:34.149Z,4.83
2022-12-06T12:54:37.952Z,4.78
2022-12-06T12:57:39.749Z,4.89
2022-12-06T13:00:45.676Z,4.88
2022-12-06T13:03:51.377Z,4.97
2022-12-06T13:06:59.170Z,4.95
2022-12-06T13:10:05.105Z,4.95
2022-12-06T13:13:14.697Z,5.03
2022-12-06T13:16:27.501Z,4.89
2022-12-06T13:19:35.241Z,4.84
2022-12-06T13:22:45.074Z,4.96
2022-12-06T13:25:52.644Z,4.99
2022-12-06T13:28:59.294Z,4.89
2022-12-06T13:32:06.363Z,4.84
2022-12-06T13:35:20.115Z,4.87
2022-12-06T13:38:26.954Z,4.79
2022-12-06T13:42:12.202Z,4.81
2022-12-06T13:45:41.109Z,4.88
2022-12-06T13:48:51.635Z,4.87
2022-12-06T13:51:53.317Z,4.84
2022-12-06T13:54:56.345Z,4.86
2022-12-06T13:58:37.573Z,4.89
2022-12-06T14:01:43.667Z,4.99
2022-12-06T14:04:45.428Z,4.86
2022-12-06T14:07:47.169Z,4.99
2022-12-06T14:10:50.297Z,4.92
2022-12-06T14:14:08.634Z,4.84
2022-12-06T14:17:32.127Z,4.87
2022-12-06T14:20:36.108Z,4.90
2022-12-06T14:23:46.301Z,5.03
2022-12-06T14:26:49.295Z,5.01
2022-12-06T14:30:05.495Z,4.80
2022-12-06T14:33:19.051Z,4.94
2022-12-06T14:36:26.217Z,5.05
2022-12-06T14:39:30.597Z,5.02
2022-12-06T14:42:52.227Z,5.02
2022-12-06T14:45:54.964Z,5.00
2022-12-06T14:49:15.659Z,4.93
2022-12-06T14:52:19.725Z,4.95
2022-12-06T14:55:21.521Z,4.80
2022-12-06T14:58:27.615Z,4.80
2022-12-06T15:01:31.939Z,4.90
2022-12-06T15:04:37.642Z,4.92
2022-12-06T15:07:42.183Z,4.89
2022-12-06T15:10:54.327Z,4.85
2022-12-06T15:14:14.094Z,4.85
2022-12-06T15:17:17.691Z,4.85
2022-12-06T15:20:19.620Z,4.84
2022-12-06T15:23:35.922Z,4.93
2022-12-06T15:26:37.626Z,4.83
2022-12-06T15:29:40.669Z,4.80
2022-12-06T15:32:42.438Z,4.80
2022-12-06T15:35:44.516Z,4.81
2022-12-06T15:38:46.655Z,4.88
2022-12-06T15:41:48.478Z,4.74
2022-12-06T15:44:51.715Z,4.70
2022-12-06T15:47:54.151Z,4.73
2022-12-06T15:50:56.596Z,4.80
2022-12-06T15:53:58.988Z,4.68
2022-12-06T15:57:00.600Z,4.65
2022-12-06T16:00:04.802Z,4.66
2022-12-06T16:03:08.120Z,4.64
2022-12-06T16:06:12.464Z,4.71
2022-12-06T16:09:16.580Z,4.66
2022-12-06T16:12:18.283Z,4.69
2022-12-06T16:15:21.351Z,4.72
2022-12-06T16:18:23.318Z,4.65
2022-12-06T16:21:27.101Z,4.60
2022-12-06T16:24:28.764Z,4.63
2022-12-06T16:27:30.517Z,4.62
2022-12-06T16:30:34.582Z,4.65
2022-12-06T16:33:36.232Z,4.60
2022-12-06T16:36:54.815Z,4.63
2022-12-06T16:39:56.493Z,4.58
2022-12-06T16:42:58.245Z,4.57
2022-12-06T16:46:18.287Z,4.55
2022-12-06T16:49:45.255Z,4.52
2022-12-06T16:52:44.249Z,4.53
2022-12-06T16:55:45.964Z,4.53
2022-12-06T16:58:47.782Z,4.53
2022-12-06T17:01:53.474Z,4.52
2022-12-06T17:04:55.738Z,4.51
2022-12-06T17:07:57.533Z,4.48
2022-12-06T17:11:19.158Z,4.46
2022-12-06T17:14:22.782Z,4.46
2022-12-06T17:17:26.253Z,4.46
2022-12-06T17:20:28.082Z,4.48
2022-12-06T17:23:30.574Z,4.48
2022-12-06T17:26:35.652Z,4.45
2022-12-06T17:29:37.723Z,4.46
2022-12-06T17:32:40.802Z,4.44
2022-12-06T17:35:42.508Z,4.39
2022-12-06T17:38:44.355Z,4.35
2022-12-06T17:42:05.251Z,4.35
2022-12-06T17:45:07.603Z,4.32
2022-12-06T17:48:10.818Z,4.31
2022-12-06T17:51:12.600Z,4.34
2022-12-06T17:54:14.949Z,4.37
2022-12-06T17:57:18.397Z,4.39
2022-12-06T18:00:20.853Z,4.41
2022-12-06T18:03:23.935Z,4.38
2022-12-06T18:06:27.858Z,4.34
2022-12-06T18:09:29.479Z,4.27
2022-12-06T18:12:32.051Z,4.28
2022-12-06T18:15:39.634Z,4.22
2022-12-06T18:18:43.519Z,4.22
2022-12-06T18:21:46.064Z,4.24
2022-12-06T18:24:47.824Z,4.26
2022-12-06T18:27:49.513Z,4.33
2022-12-06T18:30:51.125Z,4.34
2022-12-06T18:33:56.387Z,4.34
2022-12-06T18:36:57.932Z,4.27
2022-12-06T18:39:59.967Z,4.16
2022-12-06T18:43:01.868Z,4.18
2022-12-06T18:46:05.652Z,4.10
2022-12-06T18:49:10.108Z,4.16
2022-12-06T18:52:12.659Z,4.21
2022-12-06T18:55:14.514Z,4.27
2022-12-06T18:58:16.345Z,4.26
2022-12-06T19:01:20.308Z,4.28
2022-12-06T19:04:23.581Z,4.12
2022-12-06T19:07:25.251Z,4.14
2022-12-06T19:10:28.465Z,4.16
2022-12-06T19:13:30.199Z,4.17
2022-12-06T19:16:35.237Z,4.27
2022-12-06T19:19:39.995Z,4.26
2022-12-06T19:22:41.678Z,4.22
2022-12-06T19:25:43.389Z,4.26
2022-12-06T19:28:45.015Z,4.36
2022-12-06T19:31:46.900Z,4.34
2022-12-06T19:34:50.305Z,4.30
2022-12-06T19:37:52.707Z,4.29
2022-12-06T19:40:55.281Z,4.21
2022-12-06T19:44:15.645Z,4.31
2022-12-06T19:47:17.434Z,4.33
2022-12-06T19:50:20.462Z,4.21
2022-12-06T19:53:22.534Z,4.13
2022-12-06T19:56:26.589Z,4.16
2022-12-06T19:59:30.922Z,4.02
2022-12-06T20:02:32.762Z,4.08
2022-12-06T20:05:35.987Z,4.05
2022-12-06T20:08:37.823Z,4.06
2022-12-06T20:11:59.727Z,4.16
2022-12-06T20:15:01.388Z,4.07
2022-12-06T20:18:03.337Z,4.10
2022-12-06T20:21:06.585Z,4.19
2022-12-06T20:24:09.395Z,4.14
2022-12-06T20:27:11.923Z,4.10
2022-12-06T20:30:14.463Z,4.04
2022-12-06T20:33:16.170Z,4.07
2022-12-06T20:36:20.596Z,4.05
2022-12-06T20:39:25.004Z,4.06
2022-12-06T20:42:26.848Z,4.03
2022-12-06T20:45:28.494Z,4.00
2022-12-06T20:48:30.144Z,3.99
2022-12-06T20:51:33.816Z,4.01
2022-12-06T20:54:35.574Z,4.06
2022-12-06T20:57:37.871Z,4.10
2022-12-06T21:00:39.998Z,4.14
2022-12-06T21:03:41.709Z,4.15
2022-12-06T21:06:44.884Z,4.20
2022-12-06T21:09:46.823Z,4.09
2022-12-06T21:12:48.453Z,4.00
2022-12-06T21:16:01.511Z,4.01
2022-12-06T21:19:05.601Z,4.00
2022-12-06T21:22:09.145Z,3.98
2022-12-06T21:25:10.770Z,3.91
2022-12-06T21:28:12.591Z,3.81
2022-12-06T21:31:14.346Z,3.77
2022-12-06T21:34:16.235Z,3.65
2022-12-06T21:37:19.270Z,3.57
2022-12-06T21:40:20.911Z,3.58
2022-12-06T21:43:22.713Z,3.51
2022-12-06T21:46:26.445Z,3.38
2022-12-06T21:49:28.174Z,3.26
2022-12-06T21:52:31.232Z,3.32
2022-12-06T21:55:32.908Z,3.25
2022-12-06T21:58:35.345Z,3.27
2022-12-06T22:01:37.636Z,3.26
2022-12-06T22:04:39.371Z,3.17
2022-12-06T22:07:43.327Z,3.19
2022-12-06T22:10:45.058Z,3.20
2022-12-06T22:13:47.995Z,3.21
2022-12-06T22:16:50.943Z,3.18
2022-12-06T22:19:52.602Z,3.19
2022-12-06T22:22:55.627Z,3.21
2022-12-06T22:25:57.416Z,3.19
2022-12-06T22:29:00.142Z,3.23
2022-12-06T22:32:01.763Z,3.19
2022-12-06T22:35:03.851Z,3.15
2022-12-06T22:38:07.015Z,3.23
2022-12-06T22:41:09.605Z,3.23
2022-12-06T22:44:11.695Z,3.22
2022-12-06T22:47:13.367Z,3.33
2022-12-06T22:50:15.463Z,3.42
2022-12-06T22:53:18.452Z,3.41
2022-12-06T22:56:20.312Z,3.48
2022-12-06T22:59:22.136Z,3.50
2022-12-06T23:02:23.873Z,3.48
2022-12-06T23:05:25.612Z,3.38
2022-12-06T23:08:28.666Z,3.18
2022-12-06T23:11:32.120Z,3.03
2022-12-06T23:14:33.756Z,3.03
2022-12-06T23:17:35.393Z,3.15
2022-12-06T23:20:37.008Z,3.15
2022-12-06T23:23:41.482Z,3.23
2022-12-06T23:26:45.217Z,3.21
2022-12-06T23:29:46.848Z,3.24
2022-12-06T23:32:48.481Z,3.21
2022-12-06T23:35:50.159Z,3.30
2022-12-06T23:38:53.613Z,3.27
2022-12-06T23:41:55.563Z,3.33
2022-12-06T23:44:57.217Z,3.37
2022-12-06T23:47:58.871Z,3.28
2022-12-06T23:51:01.971Z,3.27
2022-12-06T23:54:07.283Z,3.33
2022-12-06T23:57:11.406Z,3.36
